createdAt,value
2023-09-22T00:02:15.808Z,40.52
2023-09-22T00:04:42.428Z,40.62
2023-09-22T00:07:09.109Z,40.61
2023-09-22T00:09:36.249Z,40.64
2023-09-22T00:12:03.526Z,40.62
2023-09-22T00:14:30.166Z,40.56
2023-09-22T00:16:56.706Z,40.59
2023-09-22T00:19:23.516Z,40.76
2023-09-22T00:21:50.091Z,40.71
2023-09-22T00:24:16.892Z,40.62
2023-09-22T00:26:44.761Z,40.79
2023-09-22T00:29:11.400Z,40.60
2023-09-22T00:31:38.079Z,40.87
2023-09-22T00:34:04.839Z,40.92
2023-09-22T00:36:33.319Z,40.80
2023-09-22T00:39:00.702Z,41.16
2023-09-22T00:41:27.357Z,41.35
2023-09-22T00:43:53.759Z,41.43
2023-09-22T00:46:22.602Z,41.58
2023-09-22T00:48:49.371Z,41.62
2023-09-22T00:51:19.650Z,41.85
2023-09-22T00:53:46.682Z,41.55
2023-09-22T00:56:13.278Z,41.50
2023-09-22T00:58:42.068Z,41.56
2023-09-22T01:01:09.195Z,41.83
2023-09-22T01:03:36.692Z,41.78
2023-09-22T01:06:03.879Z,41.40
2023-09-22T01:08:30.723Z,41.28
2023-09-22T01:10:58.294Z,41.51
2023-09-22T01:13:25.017Z,41.53
2023-09-22T01:15:51.814Z,41.58
2023-09-22T01:18:19.026Z,41.91
2023-09-22T01:20:46.223Z,42.06
2023-09-22T01:23:13.188Z,41.84
2023-09-22T01:25:40.370Z,41.87
2023-09-22T01:28:07.645Z,42.01
2023-09-22T01:30:34.810Z,41.67
2023-09-22T01:33:02.847Z,41.46
2023-09-22T01:35:32.750Z,41.38
2023-09-22T01:38:19.979Z,41.45
2023-09-22T01:40:46.712Z,41.18
2023-09-22T01:43:14.994Z,41.02
2023-09-22T01:45:41.788Z,40.43
2023-09-22T01:48:08.781Z,40.31
2023-09-22T01:50:39.410Z,40.63
2023-09-22T01:53:06.870Z,40.18
2023-09-22T01:55:33.500Z,40.10
2023-09-22T01:58:00.133Z,40.13
2023-09-22T02:00:27.108Z,39.92
2023-09-22T02:02:54.237Z,39.72
2023-09-22T02:05:21.198Z,39.51
2023-09-22T02:07:48.150Z,39.89
2023-09-22T02:10:14.968Z,40.37
2023-09-22T02:12:42.409Z,40.34
2023-09-22T02:15:12.869Z,40.63
2023-09-22T02:17:40.208Z,40.58
2023-09-22T02:20:23.379Z,40.22
2023-09-22T02:22:51.297Z,40.20
2023-09-22T02:25:18.468Z,40.08
2023-09-22T02:27:45.663Z,40.35
2023-09-22T02:30:12.350Z,40.18
2023-09-22T02:32:40.673Z,39.89
2023-09-22T02:35:08.457Z,40.00
2023-09-22T02:37:35.271Z,39.71
2023-09-22T02:40:03.229Z,39.75
2023-09-22T02:42:30.061Z,39.57
2023-09-22T02:44:56.766Z,39.86
2023-09-22T02:47:23.413Z,40.14
2023-09-22T02:49:50.269Z,40.38
2023-09-22T02:52:16.803Z,40.23
2023-09-22T02:54:43.497Z,40.34
2023-09-22T02:57:10.478Z,40.37
2023-09-22T02:59:37.059Z,40.68
2023-09-22T03:04:59.466Z,44.06
2023-09-22T03:07:26.821Z,42.68
2023-09-22T03:09:54.584Z,42.43
2023-09-22T03:12:22.250Z,42.33
2023-09-22T03:14:49.992Z,42.27
2023-09-22T03:17:17.491Z,42.27
2023-09-22T03:19:44.982Z,42.58
2023-09-22T03:22:12.310Z,42.82
2023-09-22T03:24:39.714Z,42.63
2023-09-22T03:27:07.383Z,42.76
2023-09-22T03:29:35.066Z,42.74
2023-09-22T03:32:02.619Z,42.82
2023-09-22T03:34:30.000Z,42.76
2023-09-22T03:36:58.098Z,42.56
2023-09-22T03:39:27.635Z,42.59
2023-09-22T03:41:55.622Z,42.66
2023-09-22T03:44:23.325Z,43.00
2023-09-22T03:46:50.859Z,43.33
2023-09-22T03:49:18.356Z,43.24
2023-09-22T03:51:45.749Z,43.42
2023-09-22T03:54:13.126Z,43.85
2023-09-22T03:56:40.577Z,43.75
2023-09-22T03:59:08.368Z,43.78
2023-09-22T04:01:37.243Z,43.91
2023-09-22T04:04:05.524Z,44.38
2023-09-22T04:06:33.255Z,45.03
2023-09-22T04:09:03.703Z,45.59
2023-09-22T04:11:31.192Z,45.60
2023-09-22T04:13:58.958Z,45.50
2023-09-22T04:16:26.559Z,45.20
2023-09-22T04:18:55.779Z,44.99
2023-09-22T04:21:23.924Z,44.47
2023-09-22T04:24:00.651Z,44.02
2023-09-22T04:26:31.432Z,43.57
2023-09-22T04:29:00.351Z,42.95
2023-09-22T04:31:30.067Z,42.62
2023-09-22T04:33:57.540Z,42.19
2023-09-22T04:36:24.922Z,41.82
2023-09-22T04:38:52.463Z,41.26
2023-09-22T04:41:20.910Z,40.82
2023-09-22T04:43:48.506Z,40.35
2023-09-22T04:46:20.859Z,40.41
2023-09-22T04:48:48.301Z,40.76
2023-09-22T04:51:16.168Z,40.57
2023-09-22T04:53:43.625Z,39.69
2023-09-22T04:56:11.292Z,39.39
2023-09-22T04:58:41.984Z,38.94
2023-09-22T05:01:10.048Z,38.46
2023-09-22T05:03:38.527Z,37.96
2023-09-22T05:06:15.539Z,37.73
2023-09-22T05:08:43.953Z,37.45
2023-09-22T05:11:11.695Z,36.87
2023-09-22T05:13:39.077Z,36.93
2023-09-22T05:16:08.063Z,35.95
2023-09-22T05:18:36.102Z,35.92
2023-09-22T05:21:04.449Z,35.02
2023-09-22T05:23:33.518Z,34.43
2023-09-22T05:26:01.729Z,34.04
2023-09-22T05:28:29.394Z,33.57
2023-09-22T05:30:56.735Z,33.55
2023-09-22T05:33:25.850Z,32.90
2023-09-22T05:35:53.242Z,32.46
2023-09-22T05:38:20.591Z,32.18
2023-09-22T05:40:48.844Z,31.96
2023-09-22T05:43:16.486Z,32.04
2023-09-22T05:45:43.863Z,31.72
2023-09-22T05:48:11.283Z,31.11
2023-09-22T05:50:38.626Z,31.18
2023-09-22T05:53:06.288Z,30.71
2023-09-22T05:55:37.595Z,30.21
2023-09-22T05:58:04.956Z,29.83
2023-09-22T06:00:33.265Z,29.13
2023-09-22T06:03:00.838Z,29.52
2023-09-22T06:05:28.481Z,29.08
2023-09-22T06:07:57.221Z,29.26
2023-09-22T06:10:25.892Z,28.72
2023-09-22T06:12:53.334Z,28.43
2023-09-22T06:15:20.762Z,28.69
2023-09-22T06:17:48.599Z,28.37
2023-09-22T06:20:20.189Z,27.68
2023-09-22T06:22:54.025Z,27.80
2023-09-22T06:25:21.709Z,27.85
2023-09-22T06:27:52.454Z,27.69
2023-09-22T06:30:21.805Z,27.50
2023-09-22T06:32:49.177Z,27.55
2023-09-22T06:35:16.622Z,27.42
2023-09-22T06:37:44.736Z,27.08
2023-09-22T06:40:12.859Z,26.79
2023-09-22T06:42:46.187Z,27.00
2023-09-22T06:45:14.062Z,26.45
2023-09-22T06:47:45.411Z,26.32
2023-09-22T06:50:13.467Z,26.32
2023-09-22T06:52:42.112Z,26.29
2023-09-22T06:55:11.123Z,26.39
2023-09-22T06:57:41.784Z,26.12
2023-09-22T07:00:19.636Z,25.51
2023-09-22T07:02:48.673Z,24.71
2023-09-22T07:05:17.245Z,24.20
2023-09-22T07:07:44.676Z,23.94
2023-09-22T07:10:12.096Z,23.90
2023-09-22T07:12:40.144Z,23.43
2023-09-22T07:15:08.120Z,23.35
2023-09-22T07:17:35.754Z,23.46
2023-09-22T07:20:10.001Z,23.21
2023-09-22T07:22:38.998Z,23.05
2023-09-22T07:25:07.921Z,23.09
2023-09-22T07:27:37.617Z,22.94
2023-09-22T07:30:10.919Z,22.85
2023-09-22T07:32:42.190Z,22.43
2023-09-22T07:35:09.957Z,22.20
2023-09-22T07:37:37.501Z,21.91
2023-09-22T07:40:10.531Z,21.61
2023-09-22T07:42:40.334Z,21.18
2023-09-22T07:45:08.988Z,21.16
2023-09-22T07:47:37.203Z,21.04
2023-09-22T07:50:05.924Z,21.14
2023-09-22T07:52:35.096Z,20.85
2023-09-22T07:55:03.078Z,20.89
2023-09-22T07:57:31.806Z,20.84
2023-09-22T07:59:59.365Z,20.85
2023-09-22T08:02:26.822Z,20.56
2023-09-22T08:04:54.277Z,20.31
2023-09-22T08:07:21.625Z,20.51
2023-09-22T08:09:49.188Z,20.25
2023-09-22T08:12:16.593Z,20.28
2023-09-22T08:14:57.111Z,19.99
2023-09-22T08:17:25.387Z,19.57
2023-09-22T08:19:53.720Z,19.18
2023-09-22T08:22:21.517Z,19.32
2023-09-22T08:24:49.165Z,19.13
2023-09-22T08:27:17.019Z,19.26
2023-09-22T08:29:45.196Z,19.16
2023-09-22T08:32:12.582Z,19.23
2023-09-22T08:34:40.095Z,19.58
2023-09-22T08:37:07.535Z,19.90
2023-09-22T08:39:35.290Z,19.53
2023-09-22T08:42:02.829Z,19.41
2023-09-22T08:44:30.128Z,19.58
2023-09-22T08:46:59.048Z,19.77
2023-09-22T08:49:27.648Z,19.65
2023-09-22T08:51:56.430Z,19.69
2023-09-22T08:54:23.801Z,19.72
2023-09-22T08:56:51.601Z,19.67
2023-09-22T08:59:19.046Z,19.51
2023-09-22T09:01:46.374Z,19.47
2023-09-22T09:04:31.807Z,19.50
2023-09-22T09:06:59.347Z,19.60
2023-09-22T09:09:26.851Z,19.72
2023-09-22T09:12:01.347Z,19.67
2023-09-22T09:14:32.833Z,19.79
2023-09-22T09:17:00.239Z,20.07
2023-09-22T09:19:28.534Z,20.08
2023-09-22T09:22:11.320Z,20.20
2023-09-22T09:24:39.122Z,20.38
2023-09-22T09:27:19.388Z,20.16
2023-09-22T09:29:47.736Z,19.91
2023-09-22T09:32:28.239Z,19.79
2023-09-22T09:34:55.799Z,19.13
2023-09-22T09:37:23.931Z,18.93
2023-09-22T09:39:55.349Z,19.12
2023-09-22T09:42:25.016Z,19.35
2023-09-22T09:44:54.126Z,19.79
2023-09-22T09:47:30.040Z,19.45
2023-09-22T09:49:58.969Z,19.77
2023-09-22T09:52:39.646Z,20.00
2023-09-22T09:55:10.848Z,19.88
2023-09-22T09:57:42.472Z,19.94
2023-09-22T10:00:30.038Z,20.06
2023-09-22T10:02:59.556Z,20.37
2023-09-22T10:05:27.061Z,21.08
2023-09-22T10:07:57.798Z,21.17
2023-09-22T10:10:26.465Z,21.59
2023-09-22T10:12:53.931Z,21.82
2023-09-22T10:16:11.197Z,21.59
2023-09-22T10:18:57.214Z,21.28
2023-09-22T10:21:40.205Z,21.53
2023-09-22T10:24:21.679Z,21.55
2023-09-22T10:26:55.384Z,21.80
2023-09-22T10:29:38.237Z,22.45
2023-09-22T10:32:22.793Z,23.42
2023-09-22T10:34:57.833Z,23.97
2023-09-22T10:37:29.488Z,24.66
2023-09-22T10:39:59.124Z,24.76
2023-09-22T10:42:28.256Z,24.68
2023-09-22T10:45:04.621Z,24.40
2023-09-22T10:47:50.119Z,24.48
2023-09-22T10:50:27.906Z,24.73
2023-09-22T10:53:00.680Z,24.49
2023-09-22T10:55:43.383Z,24.11
2023-09-22T10:58:19.983Z,23.41
2023-09-22T11:01:01.576Z,23.04
2023-09-22T11:03:29.404Z,22.86
2023-09-22T11:06:15.127Z,22.68
2023-09-22T11:08:52.844Z,22.51
2023-09-22T11:11:20.817Z,22.25
2023-09-22T11:13:52.526Z,22.52
2023-09-22T11:16:21.275Z,22.50
2023-09-22T11:18:49.828Z,22.83
2023-09-22T11:21:17.485Z,22.84
2023-09-22T11:23:45.148Z,22.59
2023-09-22T11:26:13.729Z,22.46
2023-09-22T11:28:42.398Z,22.44
2023-09-22T11:31:14.312Z,22.57
2023-09-22T11:33:42.361Z,22.99
2023-09-22T11:36:10.365Z,23.18
2023-09-22T11:38:41.505Z,23.14
2023-09-22T11:41:11.772Z,23.14
2023-09-22T11:43:46.224Z,23.15
2023-09-22T11:46:18.844Z,23.31
2023-09-22T11:48:53.300Z,23.31
2023-09-22T11:51:23.596Z,23.03
2023-09-22T11:53:50.975Z,22.91
2023-09-22T11:56:18.926Z,22.50
2023-09-22T11:58:46.425Z,22.67
2023-09-22T12:01:14.127Z,22.73
2023-09-22T12:03:41.586Z,22.56
2023-09-22T12:06:11.147Z,22.98
2023-09-22T12:08:38.663Z,22.69
2023-09-22T12:11:06.368Z,22.99
2023-09-22T12:13:33.791Z,22.70
2023-09-22T12:16:01.634Z,22.61
2023-09-22T12:18:29.288Z,22.88
2023-09-22T12:20:57.513Z,23.44
2023-09-22T12:23:24.870Z,23.42
2023-09-22T12:25:53.876Z,23.72
2023-09-22T12:28:21.285Z,23.37
2023-09-22T12:30:50.526Z,23.24
2023-09-22T12:33:17.924Z,23.11
2023-09-22T12:35:56.100Z,23.44
2023-09-22T12:38:23.608Z,23.34
2023-09-22T12:40:52.541Z,23.29
2023-09-22T12:43:19.900Z,23.40
2023-09-22T12:45:47.247Z,23.38
2023-09-22T12:48:15.010Z,23.21
2023-09-22T12:50:44.040Z,23.04
2023-09-22T12:53:11.413Z,23.23
2023-09-22T12:55:41.793Z,23.10
2023-09-22T12:58:09.147Z,23.44
2023-09-22T13:00:43.823Z,23.03
2023-09-22T13:03:11.896Z,22.86
2023-09-22T13:05:45.505Z,22.97
2023-09-22T13:08:13.613Z,22.80
2023-09-22T13:10:44.599Z,22.87
2023-09-22T13:13:15.615Z,23.02
2023-09-22T13:15:45.523Z,23.19
2023-09-22T13:18:14.474Z,23.55
2023-09-22T13:20:42.254Z,23.46
2023-09-22T13:23:09.828Z,23.03
2023-09-22T13:25:41.252Z,22.90
2023-09-22T13:28:09.395Z,22.90
2023-09-22T13:30:41.366Z,22.75
2023-09-22T13:33:08.804Z,22.64
2023-09-22T13:35:36.187Z,22.80
2023-09-22T13:38:04.014Z,23.12
2023-09-22T13:40:32.531Z,23.12
2023-09-22T13:43:00.342Z,23.43
2023-09-22T13:45:28.284Z,23.27
2023-09-22T13:47:55.766Z,23.43
2023-09-22T13:50:23.447Z,23.85
2023-09-22T13:52:50.848Z,24.06
2023-09-22T13:55:18.593Z,23.93
2023-09-22T13:57:46.279Z,24.26
2023-09-22T14:00:13.927Z,24.48
2023-09-22T14:02:42.168Z,24.59
2023-09-22T14:05:11.067Z,24.60
2023-09-22T14:07:41.787Z,24.37
2023-09-22T14:10:10.598Z,24.80
2023-09-22T14:12:38.544Z,24.93
2023-09-22T14:15:07.528Z,24.56
2023-09-22T14:17:35.060Z,24.72
2023-09-22T14:20:02.599Z,24.68
2023-09-22T14:22:30.736Z,24.72
2023-09-22T14:24:58.811Z,25.01
2023-09-22T14:27:26.323Z,24.89
2023-09-22T14:29:54.749Z,24.79
2023-09-22T14:32:23.267Z,24.98
2023-09-22T14:34:54.557Z,24.98
2023-09-22T14:37:23.162Z,24.83
2023-09-22T14:39:52.198Z,24.80
2023-09-22T14:42:19.755Z,25.00
2023-09-22T14:44:47.394Z,25.13
2023-09-22T14:47:14.849Z,25.40
2023-09-22T14:49:43.730Z,25.25
2023-09-22T14:52:11.925Z,25.38
2023-09-22T14:54:40.996Z,25.43
2023-09-22T14:57:08.345Z,25.63
2023-09-22T14:59:36.413Z,25.64
2023-09-22T15:02:04.028Z,25.78
2023-09-22T15:04:32.173Z,25.63
2023-09-22T15:07:00.954Z,25.54
2023-09-22T15:09:28.511Z,25.26
2023-09-22T15:11:57.014Z,25.20
2023-09-22T15:14:25.518Z,25.44
2023-09-22T15:16:52.959Z,25.42
2023-09-22T15:22:00.775Z,27.79
2023-09-22T15:24:28.469Z,26.79
2023-09-22T15:26:55.897Z,26.30
2023-09-22T15:29:23.259Z,26.34
2023-09-22T15:31:51.633Z,26.50
2023-09-22T15:34:19.116Z,26.44
2023-09-22T15:36:46.429Z,26.60
2023-09-22T15:39:14.361Z,26.62
2023-09-22T15:41:41.822Z,26.68
2023-09-22T15:44:09.209Z,26.65
2023-09-22T15:46:36.636Z,26.83
2023-09-22T15:49:05.335Z,26.73
2023-09-22T15:51:34.643Z,26.93
2023-09-22T15:54:01.998Z,27.29
2023-09-22T15:56:29.923Z,27.06
2023-09-22T15:58:57.841Z,27.42
2023-09-22T16:01:25.305Z,27.51
2023-09-22T16:03:53.220Z,27.44
2023-09-22T16:06:20.835Z,27.56
2023-09-22T16:08:48.582Z,27.80
2023-09-22T16:11:16.062Z,27.95
2023-09-22T16:13:43.601Z,27.97
2023-09-22T16:16:12.533Z,28.36
2023-09-22T16:18:40.056Z,28.43
2023-09-22T16:21:07.550Z,28.79
2023-09-22T16:23:35.090Z,29.05
2023-09-22T16:26:06.760Z,29.07
2023-09-22T16:28:34.596Z,29.18
2023-09-22T16:31:02.483Z,29.26
2023-09-22T16:33:30.688Z,29.52
2023-09-22T16:35:58.409Z,29.42
2023-09-22T16:38:25.962Z,29.51
2023-09-22T16:40:53.408Z,29.68
2023-09-22T16:43:21.180Z,29.92
2023-09-22T16:45:48.984Z,29.86
2023-09-22T16:48:17.910Z,29.60
2023-09-22T16:50:57.094Z,29.58
2023-09-22T16:53:24.429Z,29.19
2023-09-22T16:55:51.991Z,29.32
2023-09-22T16:58:19.524Z,29.31
2023-09-22T17:00:48.198Z,29.27
2023-09-22T17:03:16.144Z,29.21
2023-09-22T17:05:43.699Z,29.43
2023-09-22T17:08:12.075Z,29.26
2023-09-22T17:10:41.464Z,29.22
2023-09-22T17:13:10.323Z,29.19
2023-09-22T17:15:43.911Z,28.95
2023-09-22T17:18:13.559Z,29.09
2023-09-22T17:20:42.701Z,29.30
2023-09-22T17:23:10.383Z,29.08
2023-09-22T17:25:38.404Z,29.20
2023-09-22T17:28:06.266Z,29.19
2023-09-22T17:30:33.616Z,29.16
2023-09-22T17:33:01.025Z,29.22
2023-09-22T17:35:28.481Z,29.21
2023-09-22T17:37:56.151Z,28.88
2023-09-22T17:40:26.199Z,28.54
2023-09-22T17:42:53.577Z,28.72
2023-09-22T17:45:20.907Z,28.60
2023-09-22T17:47:48.400Z,28.58
2023-09-22T17:50:16.677Z,28.84
2023-09-22T17:52:44.278Z,28.72
2023-09-22T17:55:11.699Z,28.78
2023-09-22T17:57:39.512Z,28.95
2023-09-22T18:00:09.872Z,29.24
2023-09-22T18:02:41.706Z,29.32
2023-09-22T18:05:09.529Z,29.07
2023-09-22T18:07:37.041Z,29.20
2023-09-22T18:10:05.449Z,29.38
2023-09-22T18:12:32.813Z,29.26
2023-09-22T18:15:00.214Z,29.53
2023-09-22T18:17:27.595Z,29.86
2023-09-22T18:19:55.087Z,30.22
2023-09-22T18:22:22.527Z,30.70
2023-09-22T18:24:49.881Z,30.68
2023-09-22T18:27:17.751Z,31.01
2023-09-22T18:29:46.497Z,30.85
2023-09-22T18:32:18.181Z,30.88
2023-09-22T18:34:47.419Z,31.10
2023-09-22T18:37:16.541Z,31.40
2023-09-22T18:39:43.982Z,31.46
2023-09-22T18:42:11.348Z,31.38
2023-09-22T18:44:38.889Z,31.58
2023-09-22T18:47:06.394Z,31.69
2023-09-22T18:49:34.704Z,32.02
2023-09-22T18:52:02.997Z,32.23
2023-09-22T18:54:30.378Z,32.39
2023-09-22T18:56:58.117Z,32.26
2023-09-22T18:59:25.574Z,32.37
2023-09-22T19:01:55.649Z,32.66
2023-09-22T19:04:23.125Z,32.48
2023-09-22T19:06:50.605Z,32.68
2023-09-22T19:09:18.070Z,32.90
2023-09-22T19:11:46.112Z,32.96
2023-09-22T19:14:13.469Z,33.18
2023-09-22T19:16:42.573Z,33.23
2023-09-22T19:19:10.382Z,33.53
2023-09-22T19:21:37.891Z,33.51
2023-09-22T19:24:06.278Z,33.64
2023-09-22T19:26:34.020Z,33.96
2023-09-22T19:29:01.722Z,34.34
2023-09-22T19:31:33.914Z,34.29
2023-09-22T19:34:01.523Z,34.22
2023-09-22T19:36:29.006Z,34.64
2023-09-22T19:38:56.347Z,34.24
2023-09-22T19:41:24.578Z,34.08
2023-09-22T19:43:52.078Z,34.34
2023-09-22T19:46:19.875Z,34.14
2023-09-22T19:48:47.763Z,34.51
2023-09-22T19:51:16.451Z,34.01
2023-09-22T19:53:45.089Z,33.68
2023-09-22T19:56:12.398Z,34.41
2023-09-22T19:58:39.910Z,34.52
2023-09-22T20:01:07.566Z,34.43
2023-09-22T20:03:35.151Z,34.87
2023-09-22T20:06:02.625Z,34.90
2023-09-22T20:08:29.938Z,34.99
2023-09-22T20:11:04.088Z,34.84
2023-09-22T20:13:32.144Z,35.03
2023-09-22T20:16:01.214Z,35.29
2023-09-22T20:18:30.140Z,35.08
2023-09-22T20:20:59.280Z,35.34
2023-09-22T20:23:27.302Z,35.42
2023-09-22T20:25:59.775Z,35.41
2023-09-22T20:28:27.582Z,35.29
2023-09-22T20:31:01.696Z,35.22
2023-09-22T20:33:29.291Z,35.00
2023-09-22T20:36:03.655Z,35.21
2023-09-22T20:38:31.080Z,35.33
2023-09-22T20:41:01.087Z,35.43
2023-09-22T20:43:33.157Z,35.18
2023-09-22T20:46:01.933Z,35.54
2023-09-22T20:48:32.344Z,35.43
2023-09-22T20:51:00.613Z,35.21
2023-09-22T20:53:29.557Z,35.23
2023-09-22T20:55:56.902Z,35.76
2023-09-22T20:58:24.342Z,36.19
2023-09-22T21:00:52.368Z,36.27
2023-09-22T21:03:21.629Z,36.12
2023-09-22T21:05:49.319Z,35.76
2023-09-22T21:08:17.348Z,35.69
2023-09-22T21:10:44.837Z,35.37
2023-09-22T21:13:12.295Z,35.64
2023-09-22T21:15:39.927Z,35.74
2023-09-22T21:18:07.557Z,35.71
2023-09-22T21:20:34.960Z,35.51
2023-09-22T21:23:04.495Z,35.62
2023-09-22T21:25:31.945Z,35.69
2023-09-22T21:27:59.262Z,35.86
2023-09-22T21:30:26.635Z,35.82
2023-09-22T21:32:54.385Z,35.78
2023-09-22T21:35:22.042Z,35.96
2023-09-22T21:37:49.438Z,35.87
2023-09-22T21:40:17.526Z,35.78
2023-09-22T21:42:45.089Z,36.34
2023-09-22T21:45:12.406Z,36.45
2023-09-22T21:47:39.935Z,36.29
2023-09-22T21:50:08.252Z,36.45
2023-09-22T21:52:38.549Z,36.59
2023-09-22T21:55:07.402Z,36.34
2023-09-22T21:57:34.817Z,36.26
2023-09-22T22:00:02.702Z,36.64
2023-09-22T22:02:39.299Z,37.04
2023-09-22T22:05:06.999Z,37.31
2023-09-22T22:07:35.027Z,37.00
2023-09-22T22:10:04.593Z,37.11
2023-09-22T22:12:32.155Z,37.31
2023-09-22T22:15:00.296Z,37.65
2023-09-22T22:17:28.320Z,38.08
2023-09-22T22:19:56.034Z,37.89
2023-09-22T22:22:24.291Z,37.86
2023-09-22T22:24:52.723Z,37.75
2023-09-22T22:27:23.969Z,37.79
2023-09-22T22:29:51.838Z,37.75
2023-09-22T22:32:20.240Z,37.47
2023-09-22T22:34:48.002Z,37.82
2023-09-22T22:37:15.758Z,38.16
2023-09-22T22:39:43.709Z,38.45
2023-09-22T22:42:11.439Z,38.65
2023-09-22T22:44:39.694Z,38.92
2023-09-22T22:47:13.103Z,38.52
2023-09-22T22:49:41.109Z,38.61
2023-09-22T22:52:10.433Z,38.46
2023-09-22T22:54:38.539Z,38.06
2023-09-22T22:57:09.076Z,38.30
2023-09-22T22:59:38.710Z,37.92
2023-09-22T23:02:06.255Z,37.97
2023-09-22T23:04:33.756Z,38.18
2023-09-22T23:07:06.425Z,37.95
2023-09-22T23:09:33.710Z,37.84
2023-09-22T23:12:01.797Z,37.88
2023-09-22T23:14:30.368Z,37.94
2023-09-22T23:16:58.012Z,38.16
2023-09-22T23:19:25.415Z,38.26
2023-09-22T23:21:53.217Z,38.43
2023-09-22T23:24:20.840Z,38.00
2023-09-22T23:26:48.215Z,37.77
2023-09-22T23:29:15.628Z,37.78
2023-09-22T23:31:43.080Z,37.60
2023-09-22T23:34:10.963Z,37.40
2023-09-22T23:36:40.574Z,38.45
2023-09-22T23:39:10.016Z,38.20
2023-09-22T23:41:37.638Z,38.39
2023-09-22T23:44:12.564Z,39.57
2023-09-22T23:46:40.868Z,39.90
2023-09-22T23:49:11.448Z,40.03
2023-09-22T23:51:41.122Z,38.99
2023-09-22T23:54:13.142Z,38.82
2023-09-22T23:56:41.236Z,38.59
2023-09-22T23:59:11.012Z,38.25
